Aviation Digital Data Service (ADDS)

Output produced by METARs form (1741 UTC 16 June 2019)
found at http://www.aviationweather.gov/metar/data/
 
Forecast for: UTTT (TASKENT/YUZNI , UZ)
Text: TAF UTTT 161700Z 1618/1718 07012KT 7000 NSC
Forecast period: 1800 UTC 16 June 2019 to 1800 UTC 17 June 2019
Forecast type: FROM: standard forecast or significant change
Winds: from the ENE (70 degrees) at 14 MPH (12 knots; 6.2 m/s)
Visibility: 4 miles (7 km)
Ceiling: unknown
Clouds: missing
Weather: no significant weather forecast for this period